Time;durP1;ratioP1;P1;durP2;ratioP2;P2;SDS_P1;SDS_P2;PMS_P1;PMS_P2;Temp;Humidity;BMP_temperature;BMP_pressure;BME280_temperature;BME280_humidity;BME280_pressure;Samples;Min_cycle;Max_cycle;Signal;HPM_P1;HPM_P2
2021/05/15 00:00:57;;;;;;;;;;;;;;;21.65;30.06;97584.88;5119866;28;1180;-74
2021/05/15 00:03:23;;;;;;;;;;;;;;;21.72;30.01;97579.78;5119595;28;1909;-75
2021/05/15 00:05:48;;;;;;;;;;;;;;;21.79;29.65;97579.53;5101585;28;1173;-75
2021/05/15 00:08:14;;;;;;;;;;;;;;;21.70;29.98;97581.47;5120086;28;1205;-73
2021/05/15 00:10:39;;;;;;;;;;;;;;;21.60;30.13;97577.75;5120740;28;613;-73
2021/05/15 00:13:05;;;;;;;;;;;;;;;21.61;30.33;97585.00;5120844;28;625;-73
2021/05/15 00:15:30;;;;;;;;;;;;;;;21.67;29.96;97577.53;5120807;28;681;-73
2021/05/15 00:17:56;;;;;;;;;;;;;;;21.73;29.80;97575.69;5120575;28;1026;-73
2021/05/15 00:20:21;;;;;;;;;;;;;;;21.62;30.00;97575.25;5120301;28;918;-73
2021/05/15 00:22:47;;;;;;;;;;;;;;;21.61;29.87;97570.84;5120326;28;1897;-73
2021/05/15 00:25:13;;;;;;;;;;;;;;;21.68;30.20;97573.44;5120436;28;718;-73
2021/05/15 00:27:38;;;;;;;;;;;;;;;21.76;30.01;97574.78;5120566;28;624;-73
2021/05/15 00:30:04;;;;;;;;;;;;;;;21.67;29.96;97560.53;5120479;28;860;-73
2021/05/15 00:32:30;;;;;;;;;;;;;;;21.64;30.00;97555.78;5120014;28;936;-73
2021/05/15 00:34:58;;;;;;;;;;;;;;;21.58;30.03;97557.59;5120202;28;884;-73
2021/05/15 00:37:24;;;;;;;;;;;;;;;21.65;29.99;97550.91;5120529;28;988;-73
2021/05/15 00:39:49;;;;;;;;;;;;;;;21.59;30.27;97547.84;5120248;28;640;-73
2021/05/15 00:42:15;;;;;;;;;;;;;;;21.61;30.16;97551.03;5123005;28;1975;-73
2021/05/15 00:47:11;;;;;;;;;;;;;;;21.61;30.05;97550.25;5124196;28;866;-73
2021/05/15 00:49:36;;;;;;;;;;;;;;;21.65;30.12;97550.91;5124482;28;896;-73
2021/05/15 00:52:02;;;;;;;;;;;;;;;21.63;30.18;97553.41;5124402;28;979;-73
2021/05/15 00:54:27;;;;;;;;;;;;;;;21.81;29.74;97548.72;5124304;28;685;-73
2021/05/15 00:56:53;;;;;;;;;;;;;;;21.52;30.32;97539.63;5124287;28;705;-73
2021/05/15 00:59:19;;;;;;;;;;;;;;;21.64;30.33;97538.78;5124599;28;1079;-73
2021/05/15 01:01:44;;;;;;;;;;;;;;;21.53;30.52;97535.53;5124095;28;1979;-73
2021/05/15 01:04:09;;;;;;;;;;;;;;;21.61;30.34;97531.22;5124155;28;936;-73
2021/05/15 01:06:36;;;;;;;;;;;;;;;21.74;29.89;97531.19;5124063;28;1109;-73
2021/05/15 01:09:02;;;;;;;;;;;;;;;21.75;29.99;97539.19;5124142;28;643;-73
2021/05/15 01:11:27;;;;;;;;;;;;;;;21.75;30.16;97539.19;5124049;28;672;-73
2021/05/15 01:13:53;;;;;;;;;;;;;;;21.76;29.74;97546.47;5106488;28;1118;-73
2021/05/15 01:16:19;;;;;;;;;;;;;;;21.71;29.88;97544.22;5124035;28;828;-73
2021/05/15 01:18:44;;;;;;;;;;;;;;;21.59;30.08;97537.31;5123863;28;843;-73
2021/05/15 01:21:10;;;;;;;;;;;;;;;21.65;29.86;97540.38;5123695;28;1966;-73
2021/05/15 01:23:35;;;;;;;;;;;;;;;21.57;30.14;97536.22;5124225;28;645;-73
2021/05/15 01:26:10;;;;;;;;;;;;;;;21.75;29.68;97542.03;5124091;28;625;-74
2021/05/15 01:28:36;;;;;;;;;;;;;;;21.65;30.09;97539.56;5123686;28;649;-74
2021/05/15 01:31:01;;;;;;;;;;;;;;;21.56;30.44;97540.28;5123273;28;1028;-74
2021/05/15 01:33:27;;;;;;;;;;;;;;;21.57;30.05;97541.88;5123464;28;863;-74
2021/05/15 01:35:52;;;;;;;;;;;;;;;21.55;30.11;97548.00;5123514;28;941;-73
2021/05/15 01:38:18;;;;;;;;;;;;;;;21.59;30.30;97545.81;5123447;28;656;-73
2021/05/15 01:40:43;;;;;;;;;;;;;;;21.63;30.01;97542.88;5123935;28;587;-73
2021/05/15 01:43:08;;;;;;;;;;;;;;;21.74;29.80;97540.47;5123764;28;1964;-74
2021/05/15 01:45:34;;;;;;;;;;;;;;;21.67;30.08;97537.88;5123075;28;851;-74
2021/05/15 01:47:59;;;;;;;;;;;;;;;21.48;30.14;97536.91;5123034;28;894;-74
2021/05/15 01:50:25;;;;;;;;;;;;;;;21.71;29.75;97538.56;5123362;28;1071;-73
2021/05/15 01:52:50;;;;;;;;;;;;;;;21.67;29.76;97543.53;5123449;28;665;-73
2021/05/15 01:55:20;;;;;;;;;;;;;;;21.61;29.83;97539.72;5123480;28;815;-73
2021/05/15 01:57:45;;;;;;;;;;;;;;;21.62;30.11;97535.63;5123614;28;613;-74
2021/05/15 02:00:11;;;;;;;;;;;;;;;21.63;29.73;97531.53;5104824;28;1149;-74
2021/05/15 02:02:41;;;;;;;;;;;;;;;21.63;29.75;97531.53;5123088;28;1975;-74
2021/05/15 02:05:06;;;;;;;;;;;;;;;21.54;30.09;97532.22;5122945;28;935;-73
2021/05/15 02:07:32;;;;;;;;;;;;;;;21.61;29.88;97531.22;5123378;28;717;-73
2021/05/15 02:09:57;;;;;;;;;;;;;;;21.71;29.89;97532.91;5122926;28;598;-74
2021/05/15 02:12:23;;;;;;;;;;;;;;;21.54;29.87;97535.06;5123186;28;649;-74
2021/05/15 02:14:48;;;;;;;;;;;;;;;21.59;29.87;97525.22;5122925;28;1038;-74
2021/05/15 02:17:14;;;;;;;;;;;;;;;21.65;29.87;97534.69;5122560;28;961;-74
2021/05/15 02:19:39;;;;;;;;;;;;;;;21.65;29.81;97526.22;5123031;28;856;-74
2021/05/15 02:22:05;;;;;;;;;;;;;;;21.72;29.71;97531.63;5123038;28;1966;-73
2021/05/15 02:24:30;;;;;;;;;;;;;;;21.62;29.93;97523.50;5122659;28;632;-74
2021/05/15 02:26:55;;;;;;;;;;;;;;;21.76;29.60;97529.47;5122926;28;613;-74
2021/05/15 02:29:21;;;;;;;;;;;;;;;21.65;29.72;97517.72;5122340;28;844;-73
2021/05/15 02:31:46;;;;;;;;;;;;;;;21.57;29.96;97527.72;5122218;28;899;-73
2021/05/15 02:34:12;;;;;;;;;;;;;;;21.62;30.00;97529.97;5122724;28;1064;-73
2021/05/15 02:36:37;;;;;;;;;;;;;;;21.55;30.04;97525.34;5122612;28;706;-73
2021/05/15 02:39:03;;;;;;;;;;;;;;;21.66;30.01;97527.81;5122342;28;677;-73
2021/05/15 02:41:38;;;;;;;;;;;;;;;21.63;30.22;97520.22;5122585;28;1976;-74
2021/05/15 02:44:03;;;;;;;;;;;;;;;21.67;29.78;97528.59;5121985;28;919;-73
2021/05/15 02:46:29;;;;;;;;;;;;;;;21.77;29.78;97521.78;5122114;28;836;-73
2021/05/15 02:48:54;;;;;;;;;;;;;;;21.65;29.91;97523.38;5104349;28;1018;-73
2021/05/15 02:51:20;;;;;;;;;;;;;;;21.75;29.79;97516.56;5122166;28;660;-73
2021/05/15 02:53:45;;;;;;;;;;;;;;;21.65;29.88;97522.59;5122086;28;729;-74
2021/05/15 02:56:11;;;;;;;;;;;;;;;21.69;29.83;97520.44;5122199;28;717;-74
2021/05/15 02:58:36;;;;;;;;;;;;;;;21.69;29.57;97518.38;5121620;28;967;-74
2021/05/15 03:01:02;;;;;;;;;;;;;;;21.69;29.57;97524.06;5121664;28;892;-74
2021/05/15 03:03:27;;;;;;;;;;;;;;;21.81;29.54;97525.25;5121716;28;1968;-74
2021/05/15 03:05:52;;;;;;;;;;;;;;;21.73;29.54;97524.72;5121765;28;639;-73
2021/05/15 03:08:18;;;;;;;;;;;;;;;21.73;29.81;97523.94;5121754;28;574;-74
2021/05/15 03:10:43;;;;;;;;;;;;;;;21.60;30.15;97521.13;5121864;28;635;-74
2021/05/15 03:13:09;;;;;;;;;;;;;;;21.56;30.21;97523.31;5121311;28;987;-73
2021/05/15 03:15:34;;;;;;;;;;;;;;;21.56;30.23;97526.94;5121640;28;902;-74
2021/05/15 03:18:00;;;;;;;;;;;;;;;21.59;30.15;97530.88;5121950;28;868;-74
2021/05/15 03:20:25;;;;;;;;;;;;;;;21.69;29.73;97529.72;5121812;28;955;-74
2021/05/15 03:22:51;;;;;;;;;;;;;;;21.73;29.91;97535.25;5121484;28;1940;-73
2021/05/15 03:25:17;;;;;;;;;;;;;;;21.68;30.12;97539.47;5121845;28;657;-74
2021/05/15 03:27:42;;;;;;;;;;;;;;;21.75;29.83;97527.88;5121118;28;954;-74
2021/05/15 03:30:08;;;;;;;;;;;;;;;21.57;30.23;97536.22;5121299;28;831;-74
2021/05/15 03:32:33;;;;;;;;;;;;;;;21.68;30.31;97533.00;5121273;28;942;-74
2021/05/15 03:34:59;;;;;;;;;;;;;;;21.56;30.35;97537.47;5121620;28;590;-74
2021/05/15 03:37:24;;;;;;;;;;;;;;;21.70;29.99;97536.16;5121284;28;653;-74
2021/05/15 03:39:52;;;;;;;;;;;;;;;21.67;30.20;97537.88;5121202;28;585;-74
2021/05/15 03:42:17;;;;;;;;;;;;;;;21.67;30.23;97545.59;5121130;28;1978;-74
2021/05/15 03:44:43;;;;;;;;;;;;;;;21.78;29.78;97535.47;5121061;28;861;-74
2021/05/15 03:47:11;;;;;;;;;;;;;;;21.69;29.76;97535.38;5120994;28;1002;-74
2021/05/15 03:49:37;;;;;;;;;;;;;;;21.72;29.89;97536.50;5121214;28;695;-74
2021/05/15 03:52:02;;;;;;;;;;;;;;;21.58;29.99;97546.28;5121234;28;627;-74
2021/05/15 03:54:28;;;;;;;;;;;;;;;21.62;30.21;97544.13;5120862;28;1220;-76
2021/05/15 03:56:53;;;;;;;;;;;;;;;21.62;30.14;97546.16;5120911;28;1494;-76
2021/05/15 03:59:19;;;;;;;;;;;;;;;21.72;30.11;97550.69;5120643;28;922;-76
2021/05/15 04:01:46;;;;;;;;;;;;;;;21.71;30.01;97551.91;5121073;28;1902;-76
2021/05/15 04:04:11;;;;;;;;;;;;;;;21.69;29.97;97549.53;5103028;28;960;-75
2021/05/15 04:06:37;;;;;;;;;;;;;;;21.77;29.90;97550.88;5120979;28;692;-75
2021/05/15 04:09:02;;;;;;;;;;;;;;;21.69;30.32;97551.56;5120800;28;673;-76
2021/05/15 04:11:34;;;;;;;;;;;;;;;21.81;29.87;97560.06;5103379;28;1287;-75
2021/05/15 04:14:03;;;;;;;;;;;;;;;21.61;30.34;97555.91;5104460;28;610;-76
2021/05/15 04:19:29;;;;;;;;;;;;;;;21.68;29.98;97555.66;5078533;28;1212;-76
2021/05/15 04:21:55;;;;;;;;;;;;;;;21.60;30.49;97555.09;5111771;28;1965;-75
2021/05/15 04:24:24;;;;;;;;;;;;;;;21.81;30.28;97554.38;5120383;28;1330;-75
2021/05/15 04:26:53;;;;;;;;;;;;;;;21.72;30.28;97557.13;5120503;28;1347;-76
2021/05/15 04:29:19;;;;;;;;;;;;;;;21.68;30.51;97562.13;5136555;27;788;-76
2021/05/15 04:31:44;;;;;;;;;;;;;;;21.68;30.04;97556.44;5102730;28;1260;-76
2021/05/15 04:34:10;;;;;;;;;;;;;;;21.83;30.04;97568.09;5119970;28;1330;-75
2021/05/15 04:36:35;;;;;;;;;;;;;;;21.84;30.10;97564.78;5120385;28;864;-75
2021/05/15 04:39:01;;;;;;;;;;;;;;;21.76;30.21;97563.47;5120088;28;1375;-76
2021/05/15 04:41:26;;;;;;;;;;;;;;;21.80;30.14;97569.78;5136796;28;1972;-76
2021/05/15 04:43:52;;;;;;;;;;;;;;;21.73;30.50;97570.03;5120760;28;583;-76
2021/05/15 04:46:17;;;;;;;;;;;;;;;21.70;30.39;97570.16;5119686;28;1412;-76
2021/05/15 04:48:44;;;;;;;;;;;;;;;21.78;30.23;97571.50;5119882;28;1339;-76
2021/05/15 04:51:10;;;;;;;;;;;;;;;21.78;29.93;97572.28;5120361;28;867;-76
2021/05/15 04:53:35;;;;;;;;;;;;;;;21.67;30.16;97576.72;5120263;28;626;-76
2021/05/15 04:56:01;;;;;;;;;;;;;;;21.68;29.89;97583.97;5120042;28;1358;-76
2021/05/15 04:58:26;;;;;;;;;;;;;;;21.69;29.89;97586.34;5120261;28;1102;-76
2021/05/15 05:00:52;;;;;;;;;;;;;;;21.62;30.05;97589.41;5119903;28;1064;-76
2021/05/15 05:03:17;;;;;;;;;;;;;;;21.65;29.92;97591.31;5119831;28;1979;-76
2021/05/15 05:05:43;;;;;;;;;;;;;;;21.67;29.98;97593.72;5119911;28;1327;-75
2021/05/15 05:08:08;;;;;;;;;;;;;;;21.63;30.01;97599.50;5120106;28;869;-76
2021/05/15 05:10:33;;;;;;;;;;;;;;;21.66;30.07;97598.59;5120103;28;677;-76
2021/05/15 05:13:03;;;;;;;;;;;;;;;21.78;29.72;97588.50;5120215;28;606;-76
2021/05/15 05:15:28;;;;;;;;;;;;;;;21.61;30.06;97595.56;5119908;28;902;-76
2021/05/15 05:17:54;;;;;;;;;;;;;;;21.64;30.14;97601.06;5119472;28;1431;-76
2021/05/15 05:20:19;;;;;;;;;;;;;;;21.64;30.18;97595.41;5119694;28;1389;-76
2021/05/15 05:22:45;;;;;;;;;;;;;;;21.63;29.74;97605.16;5119927;28;1974;-75
2021/05/15 05:25:12;;;;;;;;;;;;;;;21.55;29.80;97603.78;5119939;28;685;-76
2021/05/15 05:27:40;;;;;;;;;;;;;;;21.64;29.89;97600.28;5121141;28;1311;-75
2021/05/15 05:30:06;;;;;;;;;;;;;;;21.54;30.10;97596.56;5123796;28;951;-76
2021/05/15 05:32:31;;;;;;;;;;;;;;;21.58;30.09;97602.91;5123759;28;930;-75
2021/05/15 05:34:57;;;;;;;;;;;;;;;21.63;29.95;97599.50;5106077;28;1261;-76
2021/05/15 05:37:22;;;;;;;;;;;;;;;21.63;29.61;97598.72;5123550;28;1385;-75
2021/05/15 05:39:48;;;;;;;;;;;;;;;21.56;29.81;97599.75;5124013;28;1354;-76
2021/05/15 05:42:13;;;;;;;;;;;;;;;21.51;29.80;97597.47;5119384;28;1967;-74
2021/05/15 05:44:40;;;;;;;;;;;;;;;21.49;29.66;97597.91;5122891;28;1974;-73
2021/05/15 05:47:05;;;;;;;;;;;;;;;21.58;29.79;97591.56;5118040;28;1617;-75
2021/05/15 05:49:31;;;;;;;;;;;;;;;21.66;29.47;97592.94;5123369;28;836;-75
2021/05/15 05:51:56;;;;;;;;;;;;;;;21.52;29.58;97593.41;5123225;28;634;-74
2021/05/15 05:54:28;;;;;;;;;;;;;;;21.47;30.06;97591.13;5123368;28;701;-75
2021/05/15 05:56:53;;;;;;;;;;;;;;;21.42;30.09;97594.53;5123263;28;1348;-75
2021/05/15 05:59:19;;;;;;;;;;;;;;;21.47;29.77;97596.81;5123068;28;967;-76
2021/05/15 06:01:44;;;;;;;;;;;;;;;21.56;29.85;97602.56;5122936;28;1910;-76
2021/05/15 06:04:10;;;;;;;;;;;;;;;21.53;29.67;97600.63;5123546;28;995;-75
2021/05/15 06:06:36;;;;;;;;;;;;;;;21.69;29.63;97602.53;5122851;28;1511;-76
2021/05/15 06:09:02;;;;;;;;;;;;;;;21.53;29.76;97597.81;5123068;28;586;-76
2021/05/15 06:11:28;;;;;;;;;;;;;;;21.60;29.82;97594.72;5123152;28;610;-76
2021/05/15 06:13:53;;;;;;;;;;;;;;;21.67;29.51;97588.84;5122962;28;1026;-76
2021/05/15 06:16:19;;;;;;;;;;;;;;;21.65;29.40;97579.22;5122390;28;1499;-76
2021/05/15 06:18:44;;;;;;;;;;;;;;;21.53;29.69;97575.16;5123234;28;909;-76
2021/05/15 06:21:10;;;;;;;;;;;;;;;21.62;29.84;97575.25;5122610;28;2000;-76
2021/05/15 06:23:35;;;;;;;;;;;;;;;21.63;29.61;97574.00;5122741;28;1958;-76
2021/05/15 06:26:06;;;;;;;;;;;;;;;21.60;29.52;97580.56;5122824;28;733;-76
2021/05/15 06:28:32;;;;;;;;;;;;;;;21.59;29.92;97579.00;5122166;28;1621;-75
2021/05/15 06:30:57;;;;;;;;;;;;;;;21.58;29.36;97577.41;5122417;28;890;-76
2021/05/15 06:33:23;;;;;;;;;;;;;;;21.54;29.68;97573.91;5123107;28;1053;-76
2021/05/15 06:35:48;;;;;;;;;;;;;;;21.52;29.89;97574.38;5122627;28;749;-75
2021/05/15 06:38:14;;;;;;;;;;;;;;;21.52;29.95;97570.75;5121944;28;1507;-75
2021/05/15 06:40:42;;;;;;;;;;;;;;;21.51;29.95;97569.97;5121788;28;690;-76
2021/05/15 06:43:08;;;;;;;;;;;;;;;21.47;30.00;97557.16;5122214;28;1906;-76
2021/05/15 06:45:33;;;;;;;;;;;;;;;21.52;29.71;97559.44;5122103;28;878;-76
2021/05/15 06:47:59;;;;;;;;;;;;;;;21.47;30.05;97552.31;5121776;28;1641;-76
2021/05/15 06:50:27;;;;;;;;;;;;;;;21.57;29.95;97553.19;5122571;28;615;-76
2021/05/15 06:52:52;;;;;;;;;;;;;;;21.58;29.56;97546.28;5122366;28;606;-75
2021/05/15 06:55:18;;;;;;;;;;;;;;;21.60;29.44;97555.09;5122181;28;590;-75
2021/05/15 06:57:43;;;;;;;;;;;;;;;21.58;29.81;97546.28;5121706;28;1543;-76
2021/05/15 07:00:09;;;;;;;;;;;;;;;21.53;29.77;97544.03;5121738;28;996;-76
2021/05/15 07:02:35;;;;;;;;;;;;;;;21.58;29.57;97546.28;5122205;28;1917;-76
2021/05/15 07:05:00;;;;;;;;;;;;;;;21.62;29.72;97552.63;5121913;28;698;-76
2021/05/15 07:07:26;;;;;;;;;;;;;;;21.62;29.82;97552.63;5121598;28;1526;-75
2021/05/15 07:09:51;;;;;;;;;;;;;;;21.58;29.61;97546.28;5121868;28;658;-76
2021/05/15 07:12:17;;;;;;;;;;;;;;;21.50;30.01;97550.59;5120840;28;1511;-75
2021/05/15 07:14:44;;;;;;;;;;;;;;;21.55;30.02;97552.84;5121608;28;992;-76
2021/05/15 07:17:09;;;;;;;;;;;;;;;21.62;29.83;97557.50;5121597;28;884;-76
2021/05/15 07:19:35;;;;;;;;;;;;;;;21.62;29.55;97558.28;5117424;28;1577;-75
2021/05/15 07:22:00;;;;;;;;;;;;;;;21.71;29.60;97555.53;5121376;28;1910;-76
2021/05/15 07:24:25;;;;;;;;;;;;;;;21.62;29.72;97557.50;5121573;28;1620;-75
2021/05/15 07:26:51;;;;;;;;;;;;;;;21.54;29.72;97548.44;5121165;28;1056;-75
2021/05/15 07:29:16;;;;;;;;;;;;;;;21.54;29.67;97552.06;5121036;28;850;-76
2021/05/15 07:31:42;;;;;;;;;;;;;;;21.57;29.61;97550.38;5121490;28;1043;-75
2021/05/15 07:34:07;;;;;;;;;;;;;;;21.61;29.73;97562.38;5121417;28;724;-76
2021/05/15 07:36:33;;;;;;;;;;;;;;;21.62;29.73;97561.13;5121407;28;697;-76
2021/05/15 07:38:58;;;;;;;;;;;;;;;21.57;30.02;97567.34;5121468;28;1558;-75
2021/05/15 07:41:25;;;;;;;;;;;;;;;21.69;29.72;97563.69;5120994;28;1973;-75
2021/05/15 07:43:51;;;;;;;;;;;;;;;21.52;30.06;97571.53;5121202;28;868;-76
2021/05/15 07:46:16;;;;;;;;;;;;;;;21.59;29.96;97576.16;5121269;28;926;-75
2021/05/15 07:48:42;;;;;;;;;;;;;;;21.54;30.02;97582.41;5120836;28;1519;-75
2021/05/15 07:51:11;;;;;;;;;;;;;;;21.66;30.01;97587.28;5120825;28;1641;-75
2021/05/15 07:53:36;;;;;;;;;;;;;;;21.47;29.88;97577.78;5121078;28;659;-76
2021/05/15 07:56:02;;;;;;;;;;;;;;;21.69;29.73;97579.88;5120879;28;977;-75
2021/05/15 07:58:27;;;;;;;;;;;;;;;21.63;29.68;97582.50;5120263;28;1483;-76
2021/05/15 08:00:53;;;;;;;;;;;;;;;21.54;29.98;97579.56;5120827;28;881;-75
2021/05/15 08:03:18;;;;;;;;;;;;;;;21.53;29.98;97575.16;5120705;28;1979;-76
2021/05/15 08:05:44;;;;;;;;;;;;;;;21.56;29.68;97577.09;5120875;28;660;-76
2021/05/15 08:08:09;;;;;;;;;;;;;;;21.54;29.77;97571.88;5120760;28;1565;-75
2021/05/15 08:10:35;;;;;;;;;;;;;;;21.61;29.80;97572.91;5120535;28;1063;-75
2021/05/15 08:13:00;;;;;;;;;;;;;;;21.64;29.75;97566.31;5120451;28;887;-75
2021/05/15 08:15:26;;;;;;;;;;;;;;;21.56;30.07;97560.09;5103137;28;995;-76
2021/05/15 08:17:52;;;;;;;;;;;;;;;21.58;30.00;97569.72;5120232;28;1570;-75
2021/05/15 08:20:17;;;;;;;;;;;;;;;21.65;29.56;97560.19;5120587;28;602;-75
2021/05/15 08:22:43;;;;;;;;;;;;;;;21.52;29.77;97553.75;5120558;28;1965;-76
2021/05/15 08:25:09;;;;;;;;;;;;;;;21.54;29.67;97549.22;5102497;28;1158;-76
2021/05/15 08:27:37;;;;;;;;;;;;;;;21.56;29.89;97549.56;5120239;28;879;-75
2021/05/15 08:30:03;;;;;;;;;;;;;;;21.64;29.63;97550.09;5102925;28;1567;-75
2021/05/15 08:32:29;;;;;;;;;;;;;;;21.45;30.08;97548.31;5120450;28;665;-76
2021/05/15 08:34:54;;;;;;;;;;;;;;;21.58;29.75;97549.09;5120843;28;673;-75
2021/05/15 08:37:19;;;;;;;;;;;;;;;21.67;29.63;97554.88;5120432;28;586;-75
2021/05/15 08:39:45;;;;;;;;;;;;;;;21.71;29.70;97549.88;5119791;28;1594;-75
2021/05/15 08:42:10;;;;;;;;;;;;;;;21.59;29.77;97545.03;5102622;28;1898;-76
2021/05/15 08:44:36;;;;;;;;;;;;;;;21.46;29.84;97538.63;5102451;28;1428;-75
2021/05/15 08:47:01;;;;;;;;;;;;;;;21.46;29.92;97541.44;5120322;28;594;-75
2021/05/15 08:49:27;;;;;;;;;;;;;;;21.51;29.66;97538.03;5102541;28;1606;-76
2021/05/15 08:51:55;;;;;;;;;;;;;;;21.54;29.82;97540.72;5126593;28;1509;-75
2021/05/15 08:54:21;;;;;;;;;;;;;;;21.51;29.86;97547.31;5099882;28;976;-76
2021/05/15 08:56:48;;;;;;;;;;;;;;;21.62;29.72;97552.63;5099587;28;874;-76
2021/05/15 08:59:14;;;;;;;;;;;;;;;21.48;29.87;97553.09;5100202;28;1463;-75
2021/05/15 09:01:41;;;;;;;;;;;;;;;21.41;29.77;97539.97;5120190;28;1971;-75
2021/05/15 09:04:06;;;;;;;;;;;;;;;21.47;29.93;97543.03;5124183;28;615;-75
2021/05/15 09:06:32;;;;;;;;;;;;;;;21.47;29.67;97540.19;5124363;28;646;-75
2021/05/15 09:08:57;;;;;;;;;;;;;;;21.50;29.75;97539.25;5124197;28;924;-75
2021/05/15 09:11:22;;;;;;;;;;;;;;;21.55;29.87;97544.34;5123619;28;1531;-75
2021/05/15 09:13:49;;;;;;;;;;;;;;;21.55;29.69;97547.19;5124186;28;892;-75
2021/05/15 09:16:14;;;;;;;;;;;;;;;21.53;29.61;97541.19;5106071;28;1141;-75
2021/05/15 09:18:41;;;;;;;;;;;;;;;21.54;29.65;97543.56;5089645;28;1147;-76
2021/05/15 09:21:11;;;;;;;;;;;;;;;21.42;29.96;97549.25;5123901;28;1526;-75
2021/05/15 09:23:37;;;;;;;;;;;;;;;21.53;29.65;97544.03;5123744;28;1978;-76
2021/05/15 09:26:04;;;;;;;;;;;;;;;21.45;30.01;97537.00;5123873;28;985;-75
2021/05/15 09:28:30;;;;;;;;;;;;;;;21.45;29.72;97532.16;5124120;28;871;-75
2021/05/15 09:30:55;;;;;;;;;;;;;;;21.59;29.76;97536.53;5123652;28;1594;-75
2021/05/15 09:33:21;;;;;;;;;;;;;;;21.55;29.78;97541.50;5106171;28;1784;-75
2021/05/15 09:35:46;;;;;;;;;;;;;;;21.51;29.59;97540.88;5123719;28;642;-76
2021/05/15 09:38:13;;;;;;;;;;;;;;;21.61;29.87;97545.38;5123375;28;818;-75
2021/05/15 09:40:40;;;;;;;;;;;;;;;21.66;29.56;97546.81;5123446;28;837;-75
2021/05/15 09:43:06;;;;;;;;;;;;;;;21.58;29.56;97551.94;5123129;28;1975;-75
2021/05/15 09:45:32;;;;;;;;;;;;;;;21.63;29.48;97562.69;5123620;28;586;-75
2021/05/15 09:48:01;;;;;;;;;;;;;;;21.58;29.65;97558.38;5123574;28;649;-75
2021/05/15 09:50:28;;;;;;;;;;;;;;;21.62;29.72;97551.81;5123687;28;641;-75
2021/05/15 09:53:09;;;;;;;;;;;;;;;21.51;29.99;97558.63;5122729;28;1491;-75
2021/05/15 09:55:35;;;;;;;;;;;;;;;21.44;30.01;97546.75;5122733;28;1606;-75
2021/05/15 09:58:03;;;;;;;;;;;;;;;21.45;29.92;97542.66;5123309;28;1526;-75
2021/05/15 10:00:28;;;;;;;;;;;;;;;21.59;29.84;97542.19;5123241;28;700;-75
2021/05/15 10:02:54;;;;;;;;;;;;;;;21.57;29.87;97545.50;5139590;27;1968;-75
2021/05/15 10:05:19;;;;;;;;;;;;;;;21.60;29.63;97543.78;5123442;28;687;-75
2021/05/15 10:07:45;;;;;;;;;;;;;;;21.51;29.71;97552.19;5122535;28;1589;-75
2021/05/15 10:10:11;;;;;;;;;;;;;;;21.62;29.61;97543.34;5122673;28;2060;-75
2021/05/15 10:12:36;;;;;;;;;;;;;;;21.56;29.88;97541.06;5122961;28;975;-75
2021/05/15 10:15:05;;;;;;;;;;;;;;;21.64;29.57;97544.44;5121789;28;729;-75
2021/05/15 10:17:30;;;;;;;;;;;;;;;21.60;29.60;97549.44;5122971;28;740;-75
2021/05/15 10:19:56;;;;;;;;;;;;;;;21.48;29.78;97545.38;5122712;28;1518;-75
2021/05/15 10:22:21;;;;;;;;;;;;;;;21.59;29.67;97545.03;5122424;28;1901;-75
2021/05/15 10:24:48;;;;;;;;;;;;;;;21.58;29.68;97540.63;5122739;28;831;-75
2021/05/15 10:27:14;;;;;;;;;;;;;;;21.43;30.13;97534.63;5122792;28;816;-75
2021/05/15 10:29:40;;;;;;;;;;;;;;;21.50;29.86;97539.25;5122753;28;1609;-75
2021/05/15 10:32:30;;;;;;;;;;;;;;;21.47;29.96;97534.53;5122629;28;653;-75
2021/05/15 10:35:06;;;;;;;;;;;;;;;21.48;29.73;97534.06;5102078;28;1599;-75
2021/05/15 10:37:35;;;;;;;;;;;;;;;21.41;29.79;97530.69;5122377;28;868;-75
2021/05/15 10:40:11;;;;;;;;;;;;;;;21.53;29.95;97538.38;5121828;28;1543;-75
2021/05/15 10:42:39;;;;;;;;;;;;;;;21.66;29.54;97536.31;5122144;28;1971;-75
2021/05/15 10:45:05;;;;;;;;;;;;;;;21.53;29.81;97538.38;5122344;28;741;-75
2021/05/15 10:47:40;;;;;;;;;;;;;;;21.50;29.67;97525.09;5104777;28;1311;-75
2021/05/15 10:50:18;;;;;;;;;;;;;;;21.65;29.44;97526.22;5122419;28;1411;-75
2021/05/15 10:52:44;;;;;;;;;;;;;;;21.62;29.92;97535.63;5121957;28;952;-75
2021/05/15 10:55:11;;;;;;;;;;;;;;;21.55;29.69;97530.19;5121948;28;925;-75
2021/05/15 10:57:37;;;;;;;;;;;;;;;21.50;29.86;97527.94;5138353;27;685;-75
2021/05/15 11:00:06;;;;;;;;;;;;;;;21.48;29.73;97525.56;5121475;28;1444;-74
2021/05/15 11:02:38;;;;;;;;;;;;;;;21.53;30.15;97527.03;5104303;28;1910;-75
2021/05/15 11:05:09;;;;;;;;;;;;;;;21.44;29.91;97515.59;5104556;28;646;-75
2021/05/15 11:07:35;;;;;;;;;;;;;;;21.63;29.82;97508.91;5121687;28;946;-75
2021/05/15 11:10:02;;;;;;;;;;;;;;;21.52;29.99;97516.97;5121345;28;1444;-74
2021/05/15 11:12:29;;;;;;;;;;;;;;;21.42;30.20;97524.56;5121562;28;1697;-75
2021/05/15 11:15:02;;;;;;;;;;;;;;;21.61;29.75;97510.63;5104303;28;1519;-75
2021/05/15 11:17:27;;;;;;;;;;;;;;;21.52;29.86;97505.66;5121862;28;667;-75
2021/05/15 11:19:53;;;;;;;;;;;;;;;21.47;29.88;97511.88;5121624;28;652;-75
2021/05/15 11:22:19;;;;;;;;;;;;;;;21.54;29.90;97508.78;5120919;28;1965;-75
2021/05/15 11:24:51;;;;;;;;;;;;;;;21.46;30.04;97501.81;5121282;28;831;-75
2021/05/15 11:27:17;;;;;;;;;;;;;;;21.45;30.05;97491.72;5121693;28;833;-75
2021/05/15 11:29:43;;;;;;;;;;;;;;;21.55;29.97;97497.03;5103609;28;849;-75
2021/05/15 11:32:14;;;;;;;;;;;;;;;21.53;30.11;97498.72;5103631;28;1621;-75
2021/05/15 11:34:40;;;;;;;;;;;;;;;21.57;29.80;97502.22;5121497;28;573;-75
2021/05/15 11:37:06;;;;;;;;;;;;;;;21.55;29.92;97491.38;5121175;28;1011;-75
2021/05/15 11:39:32;;;;;;;;;;;;;;;21.56;29.68;97486.50;5121076;28;916;-75
2021/05/15 11:42:01;;;;;;;;;;;;;;;21.47;30.28;97494.91;5120785;28;1961;-75
2021/05/15 11:44:27;;;;;;;;;;;;;;;21.45;29.88;97492.53;5121090;28;1558;-75
2021/05/15 11:46:53;;;;;;;;;;;;;;;21.47;30.05;97495.69;5121390;28;662;-75
2021/05/15 11:49:22;;;;;;;;;;;;;;;21.51;30.16;97489.91;5121170;28;580;-75
2021/05/15 11:51:56;;;;;;;;;;;;;;;21.56;29.85;97489.34;5120802;28;1204;-75
2021/05/15 11:54:22;;;;;;;;;;;;;;;21.51;29.80;97478.59;5120366;28;1626;-75
2021/05/15 11:56:50;;;;;;;;;;;;;;;21.53;29.91;97470.41;5121083;28;1061;-75
2021/05/15 11:59:17;;;;;;;;;;;;;;;21.58;29.84;97467.00;5120991;28;1078;-75
2021/05/15 12:01:42;;;;;;;;;;;;;;;21.55;30.08;97473.56;5120795;28;1913;-75
2021/05/15 12:04:14;;;;;;;;;;;;;;;21.57;29.76;97471.09;5120835;28;1609;-75
2021/05/15 12:06:41;;;;;;;;;;;;;;;21.50;29.96;97468.50;5121020;28;1558;-75
2021/05/15 12:09:09;;;;;;;;;;;;;;;21.46;30.06;97462.19;5120873;28;896;-75
2021/05/15 12:11:35;;;;;;;;;;;;;;;21.63;29.70;97459.97;5121116;28;717;-75
2021/05/15 12:14:00;;;;;;;;;;;;;;;21.69;29.93;97467.41;5121126;28;1538;-75
2021/05/15 12:16:26;;;;;;;;;;;;;;;21.60;29.92;97453.19;5121430;28;654;-75
2021/05/15 12:18:51;;;;;;;;;;;;;;;21.51;30.11;97458.78;5120946;28;634;-75
2021/05/15 12:21:22;;;;;;;;;;;;;;;21.66;29.81;97448.53;5120638;28;943;-75
2021/05/15 12:23:48;;;;;;;;;;;;;;;21.66;29.47;97457.03;5120681;28;1981;-75
2021/05/15 12:26:14;;;;;;;;;;;;;;;21.47;30.06;97443.94;5120938;28;862;-75
2021/05/15 12:28:44;;;;;;;;;;;;;;;21.51;30.02;97444.63;5136887;27;879;-74
2021/05/15 12:31:25;;;;;;;;;;;;;;;21.69;29.59;97433.44;5120867;28;653;-75
2021/05/15 12:33:52;;;;;;;;;;;;;;;21.70;29.56;97432.19;5136571;27;1627;-75
2021/05/15 12:36:17;;;;;;;;;;;;;;;21.67;29.66;97430.28;5120054;28;1642;-75
2021/05/15 12:38:46;;;;;;;;;;;;;;;21.69;29.70;97433.44;5120153;28;914;-75
2021/05/15 12:41:19;;;;;;;;;;;;;;;21.43;30.10;97426.28;5136739;28;860;-75
2021/05/15 12:43:47;;;;;;;;;;;;;;;21.70;29.59;97418.03;5120588;28;1991;-74
2021/05/15 12:46:15;;;;;;;;;;;;;;;21.61;29.71;97414.34;5120653;28;1463;-75
2021/05/15 12:48:42;;;;;;;;;;;;;;;21.60;29.98;97407.88;5120639;28;594;-74
2021/05/15 12:51:14;;;;;;;;;;;;;;;21.64;29.66;97419.88;5120382;28;1002;-74
2021/05/15 12:53:40;;;;;;;;;;;;;;;21.59;29.58;97406.31;5120332;28;887;-75
2021/05/15 12:56:12;;;;;;;;;;;;;;;21.50;29.78;97409.06;5120173;28;1488;-74
2021/05/15 12:58:37;;;;;;;;;;;;;;;21.47;29.85;97404.31;5120117;28;1576;-75
2021/05/15 13:01:09;;;;;;;;;;;;;;;21.49;30.03;97401.81;5120612;28;674;-74
2021/05/15 13:03:38;;;;;;;;;;;;;;;21.52;30.16;97406.56;5120455;28;1984;-75